Time;durP1;ratioP1;P1;durP2;ratioP2;P2;SDS_P1;SDS_P2;PMS_P1;PMS_P2;Temp;Humidity;BMP_temperature;BMP_pressure;BME280_temperature;BME280_humidity;BME280_pressure;Samples;Min_cycle;Max_cycle;Signal;HPM_P1;HPM_P2
2023/09/22 00:00:04;;;;;;;3.78;1.40;;;14.70;99.90;;;;;;5038044;28;20099;-79
2023/09/22 00:02:30;;;;;;;2.85;1.50;;;14.70;99.90;;;;;;5038272;28;20044;-79
2023/09/22 00:04:56;;;;;;;5.13;1.60;;;14.70;99.90;;;;;;5038030;28;20041;-78
2023/09/22 00:07:21;;;;;;;7.60;2.10;;;14.70;99.90;;;;;;5038039;28;20047;-78
2023/09/22 00:09:47;;;;;;;5.35;2.05;;;14.70;99.90;;;;;;5054509;28;20123;-78
2023/09/22 00:12:12;;;;;;;5.22;2.20;;;14.70;99.90;;;;;;5054687;28;20042;-77
2023/09/22 00:14:38;;;;;;;5.03;2.20;;;14.80;99.90;;;;;;5054730;28;20029;-77
2023/09/22 00:17:04;;;;;;;6.55;3.15;;;14.70;99.90;;;;;;5037852;28;20048;-77
2023/09/22 00:19:31;;;;;;;7.97;3.97;;;14.80;99.90;;;;;;5037673;28;20120;-77
2023/09/22 00:21:56;;;;;;;10.15;4.05;;;14.80;99.90;;;;;;5054676;28;20037;-78
2023/09/22 00:24:22;;;;;;;11.35;4.70;;;14.70;99.90;;;;;;5054302;28;20045;-78
2023/09/22 00:26:48;;;;;;;9.45;5.35;;;14.90;99.90;;;;;;5054221;28;20433;-79
2023/09/22 00:29:13;;;;;;;11.13;6.57;;;14.80;99.90;;;;;;5054088;28;20061;-78
2023/09/22 00:31:39;;;;;;;11.55;6.78;;;14.90;99.90;;;;;;5037479;28;20045;-78
2023/09/22 00:34:05;;;;;;;10.50;6.90;;;14.90;99.90;;;;;;5054095;28;20040;-78
2023/09/22 00:36:32;;;;;;;10.60;7.03;;;14.90;99.90;;;;;;5054032;28;20060;-78
2023/09/22 00:38:58;;;;;;;12.10;8.20;;;14.80;99.90;;;;;;5054341;28;20041;-78
2023/09/22 00:41:23;;;;;;;12.00;7.65;;;14.80;99.90;;;;;;5037238;28;20036;-79
2023/09/22 00:43:49;;;;;;;13.98;8.20;;;14.80;99.90;;;;;;5053979;28;20041;-80
2023/09/22 00:46:23;;;;;;;13.13;7.57;;;14.80;99.90;;;;;;5053799;28;20124;-79
2023/09/22 00:48:50;;;;;;;11.48;7.90;;;14.80;99.90;;;;;;5037223;28;20132;-78
2023/09/22 00:51:19;;;;;;;12.07;8.45;;;14.80;99.90;;;;;;5053801;28;20041;-78
2023/09/22 00:53:47;;;;;;;14.02;8.60;;;14.80;99.90;;;;;;5037076;28;20033;-78
2023/09/22 00:56:13;;;;;;;13.85;8.82;;;14.80;99.90;;;;;;5070349;28;20041;-78
2023/09/22 00:58:39;;;;;;;12.52;8.38;;;14.90;99.90;;;;;;5037045;28;20078;-78
2023/09/22 01:01:04;;;;;;;13.02;8.63;;;14.80;99.90;;;;;;5053807;28;20102;-78
2023/09/22 01:03:30;;;;;;;12.70;9.15;;;14.80;99.90;;;;;;5053645;28;20535;-78
2023/09/22 01:05:56;;;;;;;13.68;9.88;;;14.90;99.90;;;;;;5053655;28;20488;-78
2023/09/22 01:08:21;;;;;;;12.93;10.02;;;14.90;99.90;;;;;;5053594;28;20067;-79
2023/09/22 01:10:47;;;;;;;13.13;9.80;;;14.90;99.90;;;;;;5053428;28;20041;-79
2023/09/22 01:13:13;;;;;;;14.77;10.90;;;14.90;99.90;;;;;;5053415;28;20044;-79
2023/09/22 01:15:43;;;;;;;14.70;10.70;;;15.00;99.90;;;;;;5036651;28;20052;-78
2023/09/22 01:18:10;;;;;;;15.02;10.90;;;15.10;99.90;;;;;;5036736;28;20040;-79
2023/09/22 01:20:43;;;;;;;14.98;10.60;;;15.10;99.90;;;;;;5036581;28;20043;-79
2023/09/22 01:23:12;;;;;;;15.70;10.55;;;15.10;99.90;;;;;;5052911;28;20124;-78
2023/09/22 01:25:39;;;;;;;16.10;11.40;;;15.10;99.90;;;;;;5036623;28;20072;-79
2023/09/22 01:28:06;;;;;;;13.93;10.48;;;15.00;99.90;;;;;;5053247;28;20465;-78
2023/09/22 01:30:33;;;;;;;14.38;11.25;;;15.00;99.90;;;;;;5036355;28;20135;-79
2023/09/22 01:33:03;;;;;;;13.98;10.57;;;15.00;99.90;;;;;;5053088;28;20524;-79
2023/09/22 01:35:33;;;;;;;16.92;11.88;;;15.10;99.90;;;;;;5036384;28;20076;-78
2023/09/22 01:38:09;;;;;;;16.23;11.75;;;15.10;99.90;;;;;;5053176;28;20432;-78
2023/09/22 01:40:35;;;;;;;15.10;11.02;;;15.10;99.90;;;;;;5036185;28;20036;-78
2023/09/22 01:43:01;;;;;;;15.80;11.63;;;15.10;99.90;;;;;;5052856;28;20040;-78
2023/09/22 01:45:26;;;;;;;14.95;11.25;;;15.10;99.90;;;;;;5036471;28;20044;-78
2023/09/22 01:47:52;;;;;;;16.25;12.32;;;15.20;99.90;;;;;;5036383;28;20045;-78
2023/09/22 01:50:17;;;;;;;18.25;11.90;;;15.10;99.90;;;;;;5036031;28;20051;-78
2023/09/22 01:52:43;;;;;;;16.55;12.18;;;15.10;99.90;;;;;;5036223;28;20520;-78
2023/09/22 01:55:09;;;;;;;14.82;11.50;;;15.10;99.90;;;;;;5052575;28;20040;-78
2023/09/22 01:57:35;;;;;;;15.73;11.98;;;15.20;99.90;;;;;;5069220;28;20040;-78
2023/09/22 02:00:05;;;;;;;16.00;12.05;;;15.20;99.90;;;;;;5051952;28;20032;-79
2023/09/22 02:02:30;;;;;;;14.55;10.82;;;15.20;99.90;;;;;;5035901;28;20166;-79
2023/09/22 02:04:56;;;;;;;14.93;11.63;;;15.20;99.90;;;;;;5052709;28;20093;-79
2023/09/22 02:07:22;;;;;;;16.77;11.10;;;15.20;99.90;;;;;;5036044;28;20052;-79
2023/09/22 02:09:47;;;;;;;14.40;11.88;;;15.20;99.90;;;;;;5035720;28;20040;-79
2023/09/22 02:12:13;;;;;;;14.52;11.25;;;15.20;99.90;;;;;;5052564;28;20033;-79
2023/09/22 02:14:39;;;;;;;16.63;12.45;;;15.20;99.90;;;;;;5035616;28;20084;-79
2023/09/22 02:17:04;;;;;;;15.38;12.32;;;15.20;99.90;;;;;;5035570;28;20128;-78
2023/09/22 02:19:35;;;;;;;16.70;12.73;;;15.20;99.90;;;;;;5035574;28;20055;-77
2023/09/22 02:22:00;;;;;;;14.98;11.57;;;15.20;99.90;;;;;;5052681;28;20448;-79
2023/09/22 02:24:26;;;;;;;15.65;12.82;;;15.20;99.90;;;;;;5052159;28;20071;-79
2023/09/22 02:26:51;;;;;;;16.77;12.50;;;15.20;99.90;;;;;;5052108;28;20406;-79
2023/09/22 02:29:17;;;;;;;17.33;12.70;;;15.10;99.90;;;;;;5051926;28;20057;-79
2023/09/22 02:31:43;;;;;;;15.95;12.30;;;15.20;99.90;;;;;;5051936;28;20060;-79
2023/09/22 02:34:08;;;;;;;15.68;12.25;;;15.10;99.90;;;;;;5035354;28;20041;-80
2023/09/22 02:36:34;;;;;;;20.13;13.32;;;15.10;99.90;;;;;;5035465;28;20124;-79
2023/09/22 02:38:59;;;;;;;15.60;12.60;;;15.10;99.90;;;;;;5035591;28;20405;-79
2023/09/22 02:41:25;;;;;;;15.15;12.80;;;15.10;99.90;;;;;;5051906;28;20041;-78
2023/09/22 02:43:50;;;;;;;15.18;11.55;;;15.10;99.90;;;;;;5035418;28;20186;-80
2023/09/22 02:46:16;;;;;;;16.08;12.50;;;15.10;99.90;;;;;;5051904;28;20043;-79
2023/09/22 02:48:42;;;;;;;19.92;12.35;;;15.10;99.90;;;;;;5035519;28;20178;-78
2023/09/22 02:51:08;;;;;;;16.17;12.23;;;15.10;99.90;;;;;;5035418;28;20515;-79
2023/09/22 02:53:34;;;;;;;15.93;12.10;;;15.10;99.90;;;;;;5051854;28;20079;-79
2023/09/22 02:56:05;;;;;;;15.05;11.68;;;15.10;99.90;;;;;;5035091;28;20037;-79
2023/09/22 02:58:32;;;;;;;15.63;12.38;;;15.10;99.90;;;;;;5035166;28;20033;-81
2023/09/22 03:00:58;;;;;;;15.82;11.68;;;15.10;99.90;;;;;;5051677;28;20044;-78
2023/09/22 03:03:24;;;;;;;14.65;11.77;;;15.10;99.90;;;;;;5051859;28;20040;-80
2023/09/22 03:05:50;;;;;;;15.00;11.50;;;15.10;99.90;;;;;;5035092;28;20045;-79
2023/09/22 03:08:15;;;;;;;15.50;11.45;;;15.00;99.90;;;;;;5051906;28;20095;-79
2023/09/22 03:10:41;;;;;;;17.65;12.43;;;15.10;99.90;;;;;;5053891;28;20052;-79
2023/09/22 03:13:07;;;;;;;17.48;11.93;;;15.00;99.90;;;;;;5039219;28;20045;-79
2023/09/22 03:15:35;;;;;;;15.00;11.57;;;15.10;99.90;;;;;;5055788;28;20091;-79
2023/09/22 03:18:01;;;;;;;15.88;11.32;;;15.10;99.90;;;;;;5038966;28;20036;-79
2023/09/22 03:20:26;;;;;;;15.68;10.27;;;15.10;99.90;;;;;;5055886;28;20037;-79
2023/09/22 03:22:52;;;;;;;14.63;10.35;;;15.10;99.90;;;;;;5055680;28;20041;-79
2023/09/22 03:25:17;;;;;;;15.43;11.43;;;15.10;99.90;;;;;;5039168;28;20049;-78
2023/09/22 03:27:43;;;;;;;14.85;10.73;;;15.10;99.90;;;;;;5055398;28;20098;-78
2023/09/22 03:30:10;;;;;;;15.43;9.98;;;15.10;99.90;;;;;;5055210;28;20085;-79
2023/09/22 03:32:38;;;;;;;13.80;9.90;;;15.00;99.90;;;;;;5038552;28;20075;-79
2023/09/22 03:35:08;;;;;;;14.05;10.27;;;15.10;99.90;;;;;;5038747;28;20037;-80
2023/09/22 03:37:37;;;;;;;14.52;10.60;;;15.00;99.90;;;;;;5039017;28;20481;-80
2023/09/22 03:40:13;;;;;;;13.40;9.90;;;15.00;99.90;;;;;;5055401;28;20432;-79
2023/09/22 03:42:39;;;;;;;16.75;12.07;;;15.00;99.90;;;;;;5055084;28;20041;-79
2023/09/22 03:45:06;;;;;;;15.05;10.48;;;15.00;99.90;;;;;;5055070;28;20051;-79
2023/09/22 03:47:32;;;;;;;16.75;11.13;;;15.00;99.90;;;;;;5055041;28;20041;-79
2023/09/22 03:49:58;;;;;;;14.95;10.60;;;14.90;99.90;;;;;;5054954;28;20090;-78
2023/09/22 03:52:23;;;;;;;16.30;10.90;;;14.90;99.90;;;;;;5055173;28;20041;-79
2023/09/22 03:54:49;;;;;;;16.50;10.25;;;14.90;99.90;;;;;;5038309;28;20051;-79
2023/09/22 03:57:16;;;;;;;14.00;9.30;;;14.90;99.90;;;;;;5038225;28;20383;-79
2023/09/22 03:59:42;;;;;;;13.50;10.07;;;14.90;99.90;;;;;;5054985;28;20041;-79
2023/09/22 04:02:07;;;;;;;14.40;10.40;;;14.90;99.90;;;;;;5038014;28;20494;-78
2023/09/22 04:04:33;;;;;;;15.55;11.10;;;14.90;99.90;;;;;;5038108;28;20044;-79
2023/09/22 04:06:59;;;;;;;17.33;11.73;;;14.90;99.90;;;;;;5054870;28;20037;-79
2023/09/22 04:09:25;;;;;;;16.60;10.40;;;14.90;99.90;;;;;;5038168;28;20041;-78
2023/09/22 04:11:52;;;;;;;15.43;10.48;;;14.90;99.90;;;;;;5054498;28;20052;-79
2023/09/22 04:14:19;;;;;;;16.50;10.57;;;14.90;99.90;;;;;;5037844;28;20048;-79
2023/09/22 04:16:44;;;;;;;18.70;12.45;;;14.90;99.90;;;;;;5037807;28;20041;-79
2023/09/22 04:19:10;;;;;;;17.45;10.07;;;14.90;99.90;;;;;;5037802;28;20095;-78
2023/09/22 04:21:43;;;;;;;15.15;10.23;;;14.90;99.90;;;;;;5036778;28;20040;-78
2023/09/22 04:24:11;;;;;;;16.17;9.60;;;14.90;99.90;;;;;;5054401;28;20098;-78
2023/09/22 04:26:42;;;;;;;15.68;10.90;;;14.90;99.90;;;;;;5037692;28;20037;-78
2023/09/22 04:29:11;;;;;;;18.55;11.77;;;14.70;99.90;;;;;;5037479;28;20143;-78
2023/09/22 04:31:37;;;;;;;17.05;11.10;;;14.70;99.90;;;;;;5037855;28;20115;-78
2023/09/22 04:34:03;;;;;;;20.73;12.80;;;14.70;99.90;;;;;;5037516;28;20469;-79
2023/09/22 04:36:30;;;;;;;19.13;11.38;;;14.70;99.90;;;;;;5054068;28;20045;-78
2023/09/22 04:38:56;;;;;;;19.70;12.13;;;14.70;99.90;;;;;;5054119;28;20485;-78
2023/09/22 04:41:21;;;;;;;20.42;12.30;;;14.60;99.90;;;;;;5037651;28;20045;-78
2023/09/22 04:43:48;;;;;;;18.73;12.20;;;14.60;99.90;;;;;;5054205;28;20481;-78
2023/09/22 04:46:19;;;;;;;19.30;11.25;;;14.50;99.90;;;;;;5053981;28;20036;-79
2023/09/22 04:48:46;;;;;;;22.70;12.70;;;14.50;99.90;;;;;;5037352;28;20052;-79
2023/09/22 04:51:12;;;;;;;18.83;12.45;;;14.50;99.90;;;;;;5053855;28;20084;-79
2023/09/22 04:53:39;;;;;;;19.60;13.40;;;14.50;99.90;;;;;;5037106;28;20084;-79
2023/09/22 04:56:06;;;;;;;20.67;13.32;;;14.50;99.90;;;;;;5053606;28;20049;-78
2023/09/22 04:58:32;;;;;;;19.30;13.15;;;14.50;99.90;;;;;;5037116;28;20087;-79
2023/09/22 05:00:58;;;;;;;19.27;12.00;;;14.50;99.90;;;;;;5053934;28;20075;-79
2023/09/22 05:03:28;;;;;;;19.85;13.52;;;14.50;99.90;;;;;;5053554;28;20040;-79
2023/09/22 05:05:54;;;;;;;18.42;12.13;;;14.50;99.90;;;;;;5037011;28;20041;-78
2023/09/22 05:08:20;;;;;;;19.52;13.00;;;14.40;99.90;;;;;;5037125;28;20049;-78
2023/09/22 05:10:48;;;;;;;18.38;12.38;;;14.40;99.90;;;;;;5036819;28;20048;-78
2023/09/22 05:13:18;;;;;;;20.20;13.43;;;14.30;99.90;;;;;;5053374;28;20040;-78
2023/09/22 05:15:43;;;;;;;18.77;12.25;;;14.30;99.90;;;;;;5053557;28;20048;-78
2023/09/22 05:18:14;;;;;;;20.20;12.70;;;14.30;99.90;;;;;;5036771;28;20485;-78
2023/09/22 05:20:40;;;;;;;19.27;13.48;;;14.20;99.90;;;;;;5053338;28;20037;-78
2023/09/22 05:23:06;;;;;;;19.63;12.93;;;14.20;99.90;;;;;;5036498;28;20043;-78
2023/09/22 05:25:33;;;;;;;20.80;12.50;;;14.20;99.90;;;;;;5053417;28;20128;-78
2023/09/22 05:27:59;;;;;;;20.50;13.68;;;14.20;99.90;;;;;;5036677;28;20036;-77
2023/09/22 05:30:25;;;;;;;20.55;13.82;;;14.20;99.90;;;;;;5036466;28;20054;-78
2023/09/22 05:32:51;;;;;;;21.30;14.77;;;14.20;99.90;;;;;;5052824;28;20083;-78
2023/09/22 05:35:16;;;;;;;19.95;12.75;;;14.20;99.90;;;;;;5053109;28;20421;-78
2023/09/22 05:37:43;;;;;;;22.73;15.05;;;14.20;99.90;;;;;;5036549;28;20053;-78
2023/09/22 05:40:12;;;;;;;21.70;14.98;;;14.20;99.90;;;;;;5052920;28;20605;-78
2023/09/22 05:42:39;;;;;;;21.10;13.73;;;14.20;99.90;;;;;;5036257;28;20036;-78
2023/09/22 05:45:05;;;;;;;25.88;14.90;;;14.20;99.90;;;;;;5036275;28;20039;-78
2023/09/22 05:47:30;;;;;;;23.92;14.85;;;14.20;99.90;;;;;;5052701;28;20040;-77
2023/09/22 05:49:56;;;;;;;25.05;17.33;;;14.20;99.90;;;;;;5052974;28;20037;-77
2023/09/22 05:52:22;;;;;;;26.67;16.38;;;14.20;99.90;;;;;;5036265;28;20102;-77
2023/09/22 05:54:47;;;;;;;24.75;16.83;;;14.10;99.90;;;;;;5052531;28;20131;-77
2023/09/22 05:57:13;;;;;;;25.45;17.27;;;14.10;99.90;;;;;;5035885;28;20048;-77
2023/09/22 05:59:39;;;;;;;26.27;16.73;;;14.20;99.90;;;;;;5052546;28;20037;-77
2023/09/22 06:02:05;;;;;;;26.30;18.02;;;14.20;99.90;;;;;;5052779;28;20036;-77
2023/09/22 06:04:32;;;;;;;26.35;18.10;;;14.10;99.90;;;;;;5052325;28;20115;-77
2023/09/22 06:06:58;;;;;;;24.83;16.17;;;14.20;99.90;;;;;;5052697;28;20433;-77
2023/09/22 06:09:24;;;;;;;23.67;15.73;;;14.20;99.90;;;;;;5036023;28;20405;-77
2023/09/22 06:11:50;;;;;;;22.85;14.95;;;14.20;99.90;;;;;;5052373;28;20052;-78
2023/09/22 06:14:15;;;;;;;23.50;16.27;;;14.20;99.90;;;;;;5052473;28;20049;-77
2023/09/22 06:16:41;;;;;;;23.63;15.95;;;14.20;99.90;;;;;;5052203;28;20047;-77
2023/09/22 06:19:10;;;;;;;22.00;13.70;;;14.20;99.90;;;;;;5052220;28;20037;-77
2023/09/22 06:21:38;;;;;;;22.30;15.23;;;14.20;99.90;;;;;;5035577;28;20036;-78
2023/09/22 06:24:06;;;;;;;22.27;15.48;;;14.20;99.90;;;;;;5052126;28;20481;-77
2023/09/22 06:26:32;;;;;;;21.70;15.45;;;14.10;99.90;;;;;;5052173;28;20075;-79
2023/09/22 06:28:57;;;;;;;22.15;15.07;;;14.20;99.90;;;;;;5052042;28;20053;-78
2023/09/22 06:31:23;;;;;;;21.00;13.77;;;14.20;99.90;;;;;;5035902;28;20041;-77
2023/09/22 06:33:49;;;;;;;21.85;14.40;;;14.20;99.90;;;;;;5052053;28;20055;-78
2023/09/22 06:36:15;;;;;;;22.60;14.30;;;14.20;99.90;;;;;;5035738;28;20424;-78
2023/09/22 06:38:41;;;;;;;19.80;13.48;;;14.20;99.90;;;;;;5052099;28;20040;-77
2023/09/22 06:41:07;;;;;;;19.27;12.73;;;14.20;99.90;;;;;;5035477;28;20398;-78
2023/09/22 06:43:36;;;;;;;20.38;14.63;;;14.20;99.90;;;;;;5035472;28;20041;-77
2023/09/22 06:46:05;;;;;;;20.27;13.27;;;14.20;99.90;;;;;;5051338;28;20055;-78
2023/09/22 06:48:32;;;;;;;19.77;12.40;;;14.20;99.90;;;;;;5051699;28;20045;-78
2023/09/22 06:50:58;;;;;;;19.00;12.82;;;14.20;99.90;;;;;;5052115;28;20435;-78
2023/09/22 06:53:26;;;;;;;20.58;12.02;;;14.20;99.90;;;;;;5051774;28;20048;-77
2023/09/22 06:56:09;;;;;;;18.13;12.27;;;14.30;99.90;;;;;;5035118;28;20493;-78
2023/09/22 06:58:36;;;;;;;18.65;12.65;;;14.30;99.90;;;;;;5035125;28;20116;-77
2023/09/22 07:01:11;;;;;;;20.20;11.60;;;14.30;99.90;;;;;;5035307;28;20389;-78
2023/09/22 07:03:41;;;;;;;20.70;12.25;;;14.30;99.90;;;;;;5035009;28;20075;-78
2023/09/22 07:06:09;;;;;;;17.23;11.85;;;14.30;99.90;;;;;;5035409;28;20067;-78
2023/09/22 07:08:35;;;;;;;19.20;11.65;;;14.30;99.90;;;;;;5051653;28;20049;-78
2023/09/22 07:11:05;;;;;;;19.90;12.77;;;14.30;99.90;;;;;;5035050;28;20048;-78
2023/09/22 07:13:31;;;;;;;16.73;11.18;;;14.30;99.90;;;;;;5034846;28;20048;-78
2023/09/22 07:15:57;;;;;;;18.27;11.98;;;14.40;99.90;;;;;;5034881;28;20041;-78
2023/09/22 07:18:24;;;;;;;16.52;11.23;;;14.40;99.90;;;;;;5035023;28;20048;-78
2023/09/22 07:20:50;;;;;;;18.83;10.63;;;14.40;99.90;;;;;;5051900;28;20067;-78
2023/09/22 07:23:16;;;;;;;18.20;11.02;;;14.40;99.90;;;;;;5051880;28;20552;-78
2023/09/22 07:25:41;;;;;;;16.85;10.95;;;14.40;99.90;;;;;;5034888;28;20051;-79
2023/09/22 07:28:08;;;;;;;17.05;10.73;;;14.40;99.90;;;;;;5034651;28;20076;-78
2023/09/22 07:30:34;;;;;;;16.92;10.70;;;14.30;99.90;;;;;;5034835;28;20053;-78
2023/09/22 07:33:00;;;;;;;18.10;11.38;;;14.30;99.90;;;;;;5051486;28;20115;-78
2023/09/22 07:35:26;;;;;;;17.48;10.52;;;14.30;99.90;;;;;;5034650;28;20128;-78
2023/09/22 07:37:52;;;;;;;18.10;11.55;;;14.40;99.90;;;;;;5051347;28;20159;-78
2023/09/22 07:40:17;;;;;;;16.88;10.40;;;14.40;99.90;;;;;;5051367;28;20044;-78
2023/09/22 07:42:44;;;;;;;15.88;10.02;;;14.30;99.90;;;;;;5051489;28;20045;-78
2023/09/22 07:45:11;;;;;;;18.27;10.48;;;14.40;99.90;;;;;;5034948;28;20041;-78
2023/09/22 07:47:37;;;;;;;14.13;10.02;;;14.50;99.90;;;;;;5051546;28;20486;-78
2023/09/22 07:50:06;;;;;;;15.52;10.23;;;14.50;99.90;;;;;;5051302;28;20036;-78
2023/09/22 07:52:33;;;;;;;12.50;7.85;;;14.40;99.90;;;;;;5034875;28;20500;-79
2023/09/22 07:55:00;;;;;;;14.80;9.40;;;14.40;99.90;;;;;;5034523;28;20047;-78
2023/09/22 07:57:30;;;;;;;15.77;9.98;;;14.50;99.90;;;;;;5054120;28;20041;-78
2023/09/22 07:59:56;;;;;;;16.77;9.30;;;14.40;99.90;;;;;;5038404;28;20041;-78
2023/09/22 08:02:22;;;;;;;13.85;8.77;;;14.40;99.90;;;;;;5038216;28;20048;-78
2023/09/22 08:04:48;;;;;;;12.82;6.75;;;14.40;99.90;;;;;;5054915;28;20059;-78
2023/09/22 08:07:14;;;;;;;12.50;7.63;;;14.50;99.90;;;;;;5038089;28;20041;-78
2023/09/22 08:09:40;;;;;;;14.15;7.43;;;14.50;99.90;;;;;;5037923;28;20049;-78
2023/09/22 08:12:07;;;;;;;11.25;6.88;;;14.50;99.90;;;;;;5038013;28;20045;-78
2023/09/22 08:14:34;;;;;;;11.55;6.63;;;14.50;99.90;;;;;;5054748;28;20405;-78
2023/09/22 08:17:05;;;;;;;12.93;7.25;;;14.50;99.90;;;;;;5037918;28;20048;-78
2023/09/22 08:19:30;;;;;;;11.65;6.75;;;14.50;99.90;;;;;;5038190;28;20374;-78
2023/09/22 08:21:57;;;;;;;12.45;7.20;;;14.50;99.90;;;;;;5054466;28;20037;-78
2023/09/22 08:24:23;;;;;;;15.43;7.07;;;14.50;99.90;;;;;;5054528;28;20400;-78
2023/09/22 08:26:49;;;;;;;11.57;6.45;;;14.50;99.90;;;;;;5054604;28;20095;-78
2023/09/22 08:29:15;;;;;;;10.95;6.72;;;14.50;99.90;;;;;;5037623;28;20057;-78
2023/09/22 08:31:40;;;;;;;11.77;6.82;;;14.60;99.90;;;;;;5037583;28;20135;-78
2023/09/22 08:34:06;;;;;;;11.18;6.30;;;14.60;99.90;;;;;;5037826;28;20129;-78
2023/09/22 08:36:33;;;;;;;10.93;5.60;;;14.60;99.90;;;;;;5037489;28;20072;-78
2023/09/22 08:38:58;;;;;;;11.57;6.03;;;14.70;99.90;;;;;;5037436;28;20037;-78
2023/09/22 08:41:26;;;;;;;10.38;5.97;;;14.70;99.90;;;;;;5054047;28;20374;-78
2023/09/22 08:43:53;;;;;;;9.32;4.97;;;14.70;99.90;;;;;;5070704;28;20044;-78
2023/09/22 08:46:19;;;;;;;9.63;4.75;;;14.80;99.90;;;;;;5037319;28;20128;-78
2023/09/22 08:48:44;;;;;;;8.63;4.43;;;14.80;99.90;;;;;;5037230;28;20132;-78
2023/09/22 08:51:10;;;;;;;9.02;4.45;;;14.80;99.90;;;;;;5037328;28;20079;-78
2023/09/22 08:53:36;;;;;;;11.52;4.05;;;14.80;99.90;;;;;;5037425;28;20048;-78
2023/09/22 08:56:04;;;;;;;9.68;3.78;;;14.90;99.90;;;;;;5053650;28;20051;-78
2023/09/22 08:58:30;;;;;;;9.15;3.90;;;14.90;99.90;;;;;;5037188;28;20037;-78
2023/09/22 09:00:55;;;;;;;11.32;4.63;;;15.00;99.90;;;;;;5037202;28;20393;-78
2023/09/22 09:03:21;;;;;;;7.60;3.75;;;15.00;99.90;;;;;;5053904;28;20132;-78
2023/09/22 09:05:47;;;;;;;9.20;3.45;;;15.00;99.90;;;;;;5036917;28;20493;-78
2023/09/22 09:08:15;;;;;;;8.35;3.50;;;15.00;99.90;;;;;;5036400;28;20048;-78
2023/09/22 09:10:45;;;;;;;7.40;3.47;;;15.10;99.90;;;;;;5037238;28;20397;-78
2023/09/22 09:13:16;;;;;;;5.70;2.80;;;15.30;99.90;;;;;;5036892;28;20044;-79
2023/09/22 09:15:43;;;;;;;5.18;2.40;;;15.50;99.90;;;;;;5053335;28;20103;-78
2023/09/22 09:18:15;;;;;;;7.63;2.92;;;15.60;99.90;;;;;;5053399;28;20040;-79
2023/09/22 09:20:41;;;;;;;5.38;2.58;;;15.70;99.90;;;;;;5036742;28;20067;-78
2023/09/22 09:23:17;;;;;;;7.45;2.30;;;15.80;99.90;;;;;;5036732;28;20033;-78
2023/09/22 09:25:47;;;;;;;6.15;2.65;;;15.90;99.90;;;;;;5036616;28;20044;-79
2023/09/22 09:28:15;;;;;;;8.07;2.67;;;15.90;99.90;;;;;;5036335;28;20033;-78
2023/09/22 09:30:54;;;;;;;5.85;2.35;;;16.00;99.90;;;;;;5053479;28;20444;-79
2023/09/22 09:33:31;;;;;;;6.40;1.88;;;16.00;99.90;;;;;;5053213;28;20087;-78
2023/09/22 09:35:57;;;;;;;4.10;1.95;;;16.00;99.90;;;;;;5052854;28;20041;-79
2023/09/22 09:38:28;;;;;;;7.22;2.40;;;16.00;99.90;;;;;;5053011;28;20075;-79
2023/09/22 09:40:55;;;;;;;4.80;1.80;;;16.00;99.90;;;;;;5052912;28;20082;-79
2023/09/22 09:43:21;;;;;;;6.22;2.00;;;16.00;99.90;;;;;;5052866;28;20040;-79
2023/09/22 09:45:56;;;;;;;4.47;1.90;;;16.10;99.90;;;;;;5052712;28;20041;-79
2023/09/22 09:48:23;;;;;;;4.47;1.88;;;16.10;99.90;;;;;;5036246;28;20044;-79
2023/09/22 09:50:51;;;;;;;5.00;1.90;;;16.20;99.90;;;;;;5052753;28;20041;-79
2023/09/22 09:53:26;;;;;;;4.97;1.80;;;16.30;99.90;;;;;;5036099;28;20048;-79
2023/09/22 09:55:58;;;;;;;4.40;1.90;;;16.40;99.90;;;;;;5052439;28;20161;-79
2023/09/22 09:58:26;;;;;;;3.72;1.70;;;16.40;99.90;;;;;;5052642;28;20097;-79
2023/09/22 10:00:52;;;;;;;2.83;1.70;;;16.20;99.90;;;;;;5035984;28;20041;-79
2023/09/22 10:03:21;;;;;;;3.63;1.73;;;16.10;99.90;;;;;;5052788;28;20032;-79
2023/09/22 10:05:50;;;;;;;4.70;1.85;;;16.00;99.90;;;;;;5036047;28;20072;-79
2023/09/22 10:08:21;;;;;;;2.60;1.70;;;16.00;99.90;;;;;;5052412;28;20040;-80
2023/09/22 10:10:55;;;;;;;3.83;1.90;;;15.90;99.90;;;;;;5035785;28;20044;-79
2023/09/22 10:13:21;;;;;;;4.55;1.45;;;15.80;99.90;;;;;;5035827;28;20116;-80
2023/09/22 10:15:57;;;;;;;4.20;1.63;;;15.90;99.90;;;;;;5035849;28;20183;-79
2023/09/22 10:18:45;;;;;;;2.65;1.50;;;15.80;99.90;;;;;;5052367;28;20039;-80
2023/09/22 10:21:30;;;;;;;6.20;1.60;;;15.80;99.90;;;;;;5035327;28;20037;-79
2023/09/22 10:24:19;;;;;;;6.13;1.70;;;15.80;99.90;;;;;;5035707;28;20036;-80
2023/09/22 10:26:54;;;;;;;4.45;1.50;;;15.70;99.90;;;;;;5052188;28;20044;-80
2023/09/22 10:29:37;;;;;;;2.92;1.27;;;15.70;99.90;;;;;;5052092;28;20186;-79
2023/09/22 10:32:18;;;;;;;3.38;1.40;;;15.90;99.90;;;;;;5035452;28;20060;-80
2023/09/22 10:34:57;;;;;;;5.20;1.85;;;16.00;99.90;;;;;;5035720;28;20374;-80
2023/09/22 10:37:27;;;;;;;4.22;1.40;;;16.20;99.90;;;;;;5051882;28;20068;-80
2023/09/22 10:39:58;;;;;;;3.75;1.30;;;16.30;99.90;;;;;;5052260;28;20048;-80
2023/09/22 10:42:25;;;;;;;4.90;1.58;;;16.20;99.90;;;;;;5051929;28;20040;-80
2023/09/22 10:45:10;;;;;;;4.32;1.45;;;16.40;99.90;;;;;;5051919;28;20034;-80
2023/09/22 10:47:37;;;;;;;4.57;1.65;;;16.30;99.90;;;;;;5051801;28;20045;-80
2023/09/22 10:50:33;;;;;;;2.88;1.48;;;16.30;99.90;;;;;;5035724;28;20040;-80
2023/09/22 10:53:04;;;;;;;3.75;1.42;;;16.20;99.90;;;;;;5060531;28;20053;-80
2023/09/22 10:55:37;;;;;;;2.10;1.35;;;16.10;99.90;;;;;;5035277;28;20139;-80
2023/09/22 10:58:05;;;;;;;3.25;1.33;;;16.00;99.90;;;;;;5035370;28;20503;-80
2023/09/22 11:00:32;;;;;;;3.40;1.30;;;16.00;99.90;;;;;;5035391;28;20392;-80
2023/09/22 11:03:12;;;;;;;3.15;1.40;;;15.90;99.90;;;;;;5035124;28;20037;-80
2023/09/22 11:05:39;;;;;;;3.50;1.33;;;15.90;99.90;;;;;;5051717;28;20041;-80
2023/09/22 11:08:17;;;;;;;2.80;1.30;;;15.90;99.90;;;;;;5034979;28;20037;-80
2023/09/22 11:10:47;;;;;;;3.15;1.38;;;15.90;99.90;;;;;;5051867;28;20052;-80
2023/09/22 11:13:16;;;;;;;4.40;1.60;;;16.00;99.90;;;;;;5034907;28;20489;-80
2023/09/22 11:15:49;;;;;;;2.83;1.65;;;15.90;99.90;;;;;;5051493;28;20559;-80
2023/09/22 11:18:29;;;;;;;3.47;1.48;;;15.80;99.90;;;;;;5034811;28;20032;-80
2023/09/22 11:20:59;;;;;;;4.20;1.63;;;15.90;99.90;;;;;;5051597;28;20560;-80
2023/09/22 11:23:26;;;;;;;4.35;1.70;;;16.10;99.90;;;;;;5034810;28;20037;-81
2023/09/22 11:26:06;;;;;;;2.58;1.83;;;16.10;99.90;;;;;;5034947;28;20076;-80
2023/09/22 11:28:33;;;;;;;3.45;1.75;;;16.10;99.90;;;;;;5034921;28;20056;-80
2023/09/22 11:31:19;;;;;;;3.00;1.60;;;16.20;99.90;;;;;;5035778;28;20087;-81
2023/09/22 11:33:58;;;;;;;4.20;2.03;;;16.10;99.90;;;;;;5038754;28;20044;-81
2023/09/22 11:36:24;;;;;;;3.95;1.80;;;16.10;99.90;;;;;;5038587;28;20052;-80
2023/09/22 11:38:54;;;;;;;4.18;1.70;;;16.10;99.90;;;;;;5038920;28;20104;-81
2023/09/22 11:41:22;;;;;;;5.25;1.65;;;16.10;99.90;;;;;;5038816;28;20389;-80
2023/09/22 11:43:49;;;;;;;2.58;1.63;;;16.20;99.90;;;;;;5055160;28;20515;-81
2023/09/22 11:46:22;;;;;;;3.35;1.52;;;16.30;99.90;;;;;;5055125;28;20048;-81
2023/09/22 11:48:59;;;;;;;4.45;1.70;;;16.30;99.90;;;;;;5055069;28;20052;-81
2023/09/22 11:51:43;;;;;;;2.40;1.50;;;16.30;99.90;;;;;;5038355;28;20520;-81
2023/09/22 11:54:10;;;;;;;3.15;1.73;;;16.40;99.90;;;;;;5055273;28;20049;-81
2023/09/22 11:56:36;;;;;;;3.33;1.67;;;16.40;99.90;;;;;;5054799;28;20037;-81
2023/09/22 11:59:17;;;;;;;3.00;1.60;;;16.30;99.90;;;;;;5038276;28;20102;-81
2023/09/22 12:01:45;;;;;;;4.28;1.88;;;16.30;99.90;;;;;;5038243;28;20069;-81
2023/09/22 12:04:12;;;;;;;4.50;2.00;;;16.30;99.90;;;;;;5038172;28;20044;-81
2023/09/22 12:06:40;;;;;;;2.45;1.60;;;16.20;99.90;;;;;;5054635;28;20493;-81
2023/09/22 12:09:07;;;;;;;3.72;1.90;;;16.40;99.90;;;;;;5038338;28;20040;-81
2023/09/22 12:11:32;;;;;;;2.50;1.45;;;16.40;99.90;;;;;;5054552;28;20397;-81
2023/09/22 12:13:58;;;;;;;3.60;1.98;;;16.50;99.90;;;;;;5037955;28;20045;-81
2023/09/22 12:16:24;;;;;;;4.18;2.10;;;16.50;99.90;;;;;;5054688;28;20041;-81
2023/09/22 12:18:50;;;;;;;2.60;1.70;;;16.50;99.90;;;;;;5038054;28;20417;-81
2023/09/22 12:21:16;;;;;;;5.13;2.10;;;16.50;99.90;;;;;;5037885;28;20033;-81
2023/09/22 12:23:41;;;;;;;3.97;2.08;;;16.40;99.90;;;;;;5038090;28;20114;-81
2023/09/22 12:26:07;;;;;;;3.70;1.98;;;16.40;99.90;;;;;;5037800;28;20497;-81
2023/09/22 12:28:33;;;;;;;4.13;2.20;;;16.40;99.90;;;;;;5054030;28;20386;-81
2023/09/22 12:30:58;;;;;;;3.63;2.03;;;16.40;99.90;;;;;;5038051;28;20134;-81
2023/09/22 12:33:24;;;;;;;3.17;1.98;;;16.40;99.90;;;;;;5037570;28;20048;-81
2023/09/22 12:35:54;;;;;;;2.83;1.90;;;16.40;99.90;;;;;;5037789;28;20107;-81
2023/09/22 12:38:24;;;;;;;3.47;1.80;;;16.30;99.90;;;;;;5054313;28;20041;-81